Time;durP1;ratioP1;P1;durP2;ratioP2;P2;SDS_P1;SDS_P2;PMS_P1;PMS_P2;Temp;Humidity;BMP_temperature;BMP_pressure;BME280_temperature;BME280_humidity;BME280_pressure;Samples;Min_cycle;Max_cycle;Signal;HPM_P1;HPM_P2
2022/01/10 00:00:10;;;;;;;5.45;3.40;;;3.30;99.90;;;;;;5056131;28;20201;-69
2022/01/10 00:02:35;;;;;;;6.20;5.57;;;3.30;99.90;;;;;;5062529;28;20236;-66
2022/01/10 00:05:01;;;;;;;4.50;3.30;;;3.30;99.90;;;;;;5081810;28;20662;-69
2022/01/10 00:07:27;;;;;;;7.93;4.70;;;3.30;99.90;;;;;;5055599;28;20277;-69
2022/01/10 00:09:52;;;;;;;4.43;3.90;;;3.40;99.90;;;;;;5055520;28;20173;-71
2022/01/10 00:12:18;;;;;;;2.73;2.53;;;3.30;99.90;;;;;;5055699;28;20166;-70
2022/01/10 00:14:43;;;;;;;5.97;3.90;;;3.30;99.90;;;;;;5055424;28;20707;-69
2022/01/10 00:17:09;;;;;;;4.10;3.80;;;3.40;99.90;;;;;;5055411;28;20579;-70
2022/01/10 00:19:35;;;;;;;3.07;2.80;;;3.30;99.90;;;;;;5055294;28;20170;-70
2022/01/10 00:22:01;;;;;;;8.30;5.67;;;3.30;99.90;;;;;;5055448;28;20168;-70
2022/01/10 00:24:26;;;;;;;4.37;3.50;;;3.40;99.90;;;;;;5055353;28;20173;-72
2022/01/10 00:26:52;;;;;;;4.93;4.53;;;3.40;99.90;;;;;;5055054;28;20185;-71
2022/01/10 00:29:17;;;;;;;3.70;3.00;;;3.40;99.90;;;;;;5055637;28;20168;-72
2022/01/10 00:31:43;;;;;;;3.67;3.40;;;3.40;99.90;;;;;;5054880;28;20173;-69
2022/01/10 00:34:10;;;;;;;3.47;3.20;;;3.40;99.90;;;;;;5055425;28;20231;-71
2022/01/10 00:36:36;;;;;;;3.17;1.80;;;3.40;99.90;;;;;;5054875;28;20206;-69
2022/01/10 00:39:03;;;;;;;3.20;3.00;;;3.40;99.90;;;;;;5054809;28;20174;-69
2022/01/10 00:41:29;;;;;;;6.00;2.70;;;3.40;99.90;;;;;;5054707;28;20162;-71
2022/01/10 00:43:55;;;;;;;3.77;2.87;;;3.40;99.90;;;;;;5055192;28;20173;-71
2022/01/10 00:46:22;;;;;;;3.00;2.80;;;3.30;99.90;;;;;;5054984;28;20216;-71
2022/01/10 00:48:48;;;;;;;3.25;2.90;;;3.30;99.90;;;;;;5055156;28;20598;-70
2022/01/10 00:51:13;;;;;;;3.60;3.30;;;3.30;99.90;;;;;;5054157;28;20192;-70
2022/01/10 00:53:39;;;;;;;3.07;2.87;;;3.20;99.90;;;;;;5054703;28;20256;-71
2022/01/10 00:56:08;;;;;;;3.27;2.97;;;3.30;99.90;;;;;;5054636;28;20600;-71
2022/01/10 00:58:34;;;;;;;2.00;1.90;;;3.30;99.90;;;;;;5054512;28;20162;-69
2022/01/10 01:01:00;;;;;;;2.55;2.35;;;3.30;99.90;;;;;;5054186;28;20161;-70
2022/01/10 01:03:26;;;;;;;5.83;3.10;;;3.30;99.90;;;;;;5065134;28;20199;-70
2022/01/10 01:05:51;;;;;;;4.40;4.00;;;3.30;99.90;;;;;;5067640;28;20173;-71
2022/01/10 01:08:17;;;;;;;2.97;2.80;;;3.30;99.90;;;;;;5054409;28;20529;-71
2022/01/10 01:24:07;;;;;;;18.08;3.00;;;3.40;99.90;;;;;;5054470;28;20214;-68
2022/01/10 01:26:36;;;;;;;4.05;3.75;;;3.30;99.90;;;;;;5053690;28;20222;-69
2022/01/10 01:29:04;;;;;;;4.32;4.07;;;3.30;99.90;;;;;;5054035;28;20169;-69
2022/01/10 01:31:30;;;;;;;4.32;4.03;;;3.30;99.90;;;;;;5053645;28;20170;-69
2022/01/10 01:33:56;;;;;;;2.85;2.42;;;3.30;99.90;;;;;;5054153;28;20635;-71
2022/01/10 01:36:24;;;;;;;5.90;3.47;;;3.20;99.90;;;;;;5052430;28;20212;-69
2022/01/10 01:38:51;;;;;;;3.58;3.28;;;3.30;99.90;;;;;;5053922;28;20165;-70
2022/01/10 01:43:53;;;;;;;6.22;3.90;;;3.30;99.90;;;;;;5059661;28;20181;-69
2022/01/10 01:46:20;;;;;;;4.40;3.85;;;3.40;99.90;;;;;;5060548;28;20170;-70
2022/01/10 01:48:47;;;;;;;3.83;3.53;;;3.40;99.90;;;;;;5055297;28;20186;-67
2022/01/10 01:51:13;;;;;;;3.88;3.25;;;3.40;99.90;;;;;;5052626;28;20184;-69
2022/01/10 01:53:39;;;;;;;3.90;3.60;;;3.40;99.90;;;;;;5054153;28;20177;-68
2022/01/10 01:56:07;;;;;;;4.90;4.40;;;3.50;99.90;;;;;;5053402;28;20207;-70
2022/01/10 01:58:35;;;;;;;3.35;3.15;;;3.40;99.90;;;;;;5053494;28;20169;-68
2022/01/10 02:01:01;;;;;;;3.40;3.10;;;3.40;99.90;;;;;;5053303;28;20172;-69
2022/01/10 02:03:27;;;;;;;4.07;3.70;;;3.40;99.90;;;;;;5064196;28;20555;-70
2022/01/10 02:05:52;;;;;;;4.30;3.57;;;3.40;99.90;;;;;;5066678;28;20177;-68
2022/01/10 02:08:18;;;;;;;2.93;2.70;;;3.40;99.90;;;;;;5053183;28;20205;-69
2022/01/10 02:10:44;;;;;;;4.43;3.80;;;3.40;99.90;;;;;;5053135;28;20180;-70
2022/01/10 02:13:09;;;;;;;3.83;3.47;;;3.50;99.90;;;;;;5053095;28;20209;-68
2022/01/10 02:15:47;;;;;;;4.07;3.27;;;3.50;99.90;;;;;;5053406;28;20671;-71
2022/01/10 02:18:19;;;;;;;5.45;4.50;;;3.60;99.90;;;;;;5051850;28;20683;-70
2022/01/10 02:20:46;;;;;;;4.03;2.95;;;3.60;99.90;;;;;;5053245;28;20169;-71
2022/01/10 02:23:13;;;;;;;4.13;3.80;;;3.50;99.90;;;;;;5053064;28;20173;-69
2022/01/10 02:25:40;;;;;;;3.75;3.20;;;3.50;99.90;;;;;;5053298;28;20174;-68
2022/01/10 02:28:06;;;;;;;3.05;2.75;;;3.50;99.90;;;;;;5052958;28;20239;-68
2022/01/10 02:30:32;;;;;;;4.13;2.80;;;3.50;99.90;;;;;;5053252;28;20174;-69
2022/01/10 02:33:00;;;;;;;3.20;2.90;;;3.50;99.90;;;;;;5052628;28;20169;-68
2022/01/10 02:35:37;;;;;;;3.15;2.75;;;3.50;99.90;;;;;;5052910;28;20216;-68
2022/01/10 02:38:03;;;;;;;2.88;2.67;;;3.50;99.90;;;;;;5053060;28;20249;-71
2022/01/10 02:40:31;;;;;;;4.75;3.30;;;3.50;99.90;;;;;;5052831;28;20184;-68
2022/01/10 02:42:58;;;;;;;2.42;2.10;;;3.50;99.90;;;;;;5052585;28;20201;-70
2022/01/10 02:45:24;;;;;;;4.20;3.55;;;3.50;99.90;;;;;;5052931;28;20173;-70
2022/01/10 02:47:51;;;;;;;4.78;3.80;;;3.40;99.90;;;;;;5052812;28;20264;-70
2022/01/10 02:50:18;;;;;;;3.72;3.42;;;3.50;99.90;;;;;;5052868;28;20184;-68
2022/01/10 02:52:45;;;;;;;4.80;4.30;;;3.50;99.90;;;;;;5052588;28;20219;-69
2022/01/10 02:55:11;;;;;;;4.68;2.55;;;3.50;99.90;;;;;;5051606;28;20690;-69
2022/01/10 02:57:38;;;;;;;3.88;2.45;;;3.50;99.90;;;;;;5052858;28;20204;-70
2022/01/10 03:00:11;;;;;;;3.00;2.80;;;3.50;99.90;;;;;;5052928;28;20173;-67
2022/01/10 03:02:37;;;;;;;3.80;3.50;;;3.60;99.90;;;;;;5060590;28;20172;-71
2022/01/10 03:05:05;;;;;;;5.65;4.38;;;3.50;99.90;;;;;;5076752;28;20288;-69
2022/01/10 03:07:31;;;;;;;2.78;2.58;;;3.50;99.90;;;;;;5056614;28;20598;-69
2022/01/10 03:09:56;;;;;;;5.05;2.40;;;3.50;99.90;;;;;;5056851;28;20170;-68
2022/01/10 03:12:22;;;;;;;4.17;3.50;;;3.50;99.90;;;;;;5056287;28;20173;-70
2022/01/10 03:14:48;;;;;;;4.07;2.72;;;3.50;99.90;;;;;;5056643;28;20176;-69
2022/01/10 03:17:14;;;;;;;5.97;5.47;;;3.50;99.90;;;;;;5056578;28;20181;-70
2022/01/10 03:19:41;;;;;;;4.95;3.42;;;3.50;99.90;;;;;;5056439;28;20165;-69
2022/01/10 03:22:08;;;;;;;6.65;3.72;;;3.50;99.90;;;;;;5056037;28;20569;-68
2022/01/10 03:24:34;;;;;;;4.00;3.38;;;3.50;99.90;;;;;;5056427;28;20200;-68
2022/01/10 03:27:00;;;;;;;4.32;3.92;;;3.50;99.90;;;;;;5056121;28;20200;-68
2022/01/10 03:29:26;;;;;;;3.40;3.17;;;3.50;99.90;;;;;;5056231;28;20165;-69
2022/01/10 03:31:52;;;;;;;5.75;4.65;;;3.40;99.90;;;;;;5055848;28;20785;-69
2022/01/10 03:34:17;;;;;;;4.17;3.80;;;3.50;99.90;;;;;;5056123;28;20162;-68
2022/01/10 03:36:44;;;;;;;3.80;2.97;;;3.50;99.90;;;;;;5056007;28;20466;-70
2022/01/10 03:39:11;;;;;;;4.72;4.32;;;3.50;99.90;;;;;;5056186;28;20539;-67
2022/01/10 03:41:37;;;;;;;3.95;3.17;;;3.50;99.90;;;;;;5055652;28;20170;-69
2022/01/10 03:44:05;;;;;;;3.10;2.70;;;3.50;99.90;;;;;;5055996;28;20161;-68
2022/01/10 03:46:32;;;;;;;3.78;3.35;;;3.50;99.90;;;;;;5055600;28;20186;-68
2022/01/10 03:48:59;;;;;;;5.55;3.70;;;3.60;99.90;;;;;;5055961;28;20167;-69
2022/01/10 03:51:25;;;;;;;6.63;3.00;;;3.60;99.90;;;;;;5055423;28;20646;-69
2022/01/10 03:53:50;;;;;;;6.93;3.77;;;3.60;99.90;;;;;;5055737;28;20218;-69
2022/01/10 03:56:16;;;;;;;4.80;4.40;;;3.60;99.90;;;;;;5055378;28;20201;-69
2022/01/10 03:58:42;;;;;;;4.82;3.60;;;3.70;99.90;;;;;;5056193;28;20170;-68
2022/01/10 04:01:09;;;;;;;5.60;3.77;;;3.60;99.90;;;;;;5055498;28;20166;-69
2022/01/10 04:03:37;;;;;;;4.63;3.30;;;3.60;99.90;;;;;;5063246;28;20191;-69
2022/01/10 04:06:02;;;;;;;5.93;4.07;;;3.60;99.90;;;;;;5063594;28;20180;-68
2022/01/10 04:08:28;;;;;;;7.20;5.97;;;3.60;99.90;;;;;;5075630;28;20255;-69
2022/01/10 04:10:54;;;;;;;4.03;3.67;;;3.70;99.90;;;;;;5075602;28;20631;-68
2022/01/10 04:13:19;;;;;;;2.80;2.60;;;3.60;99.90;;;;;;5074283;28;20172;-68
2022/01/10 04:15:45;;;;;;;5.00;4.10;;;3.60;99.90;;;;;;5075331;28;20239;-67
2022/01/10 04:18:11;;;;;;;3.43;3.03;;;3.50;99.90;;;;;;5075292;28;20206;-68
2022/01/10 04:20:37;;;;;;;5.10;4.27;;;3.60;99.90;;;;;;5075312;28;20881;-67
2022/01/10 04:23:03;;;;;;;6.77;3.73;;;3.60;99.90;;;;;;5075048;28;20165;-69
2022/01/10 04:25:29;;;;;;;5.30;3.53;;;3.60;99.90;;;;;;5075336;28;20165;-70
2022/01/10 04:27:54;;;;;;;8.23;3.53;;;3.60;99.90;;;;;;5074968;28;20774;-69
2022/01/10 04:30:20;;;;;;;6.03;4.50;;;3.70;99.90;;;;;;5075169;28;20757;-69
2022/01/10 04:32:46;;;;;;;9.03;3.87;;;3.70;99.90;;;;;;5074734;28;20177;-68
2022/01/10 04:35:12;;;;;;;5.37;3.83;;;3.70;99.90;;;;;;5075126;28;20505;-69
2022/01/10 04:37:38;;;;;;;4.35;2.92;;;3.70;99.90;;;;;;5074723;28;20450;-69
2022/01/10 04:40:06;;;;;;;5.10;3.42;;;3.70;99.90;;;;;;5075004;28;20165;-69
2022/01/10 04:42:32;;;;;;;8.07;4.80;;;3.80;99.90;;;;;;5073214;28;20185;-69
2022/01/10 04:44:58;;;;;;;5.07;4.57;;;3.80;99.90;;;;;;5074821;28;20542;-69
2022/01/10 04:47:24;;;;;;;4.20;3.80;;;3.80;99.90;;;;;;5074723;28;20674;-69
2022/01/10 04:52:28;;;;;;;5.30;4.80;;;3.80;99.90;;;;;;5074324;28;20169;-69
2022/01/10 04:54:54;;;;;;;4.35;3.75;;;3.80;99.90;;;;;;5074678;28;20666;-69
2022/01/10 04:57:20;;;;;;;10.20;5.83;;;3.70;99.90;;;;;;5074474;28;20195;-69
2022/01/10 04:59:46;;;;;;;4.23;3.83;;;3.70;99.90;;;;;;5074628;28;20176;-69
2022/01/10 05:02:12;;;;;;;4.73;4.30;;;3.70;99.90;;;;;;5071951;28;20411;-68
2022/01/10 05:04:37;;;;;;;5.70;3.97;;;3.70;99.90;;;;;;5054390;28;20914;-69
2022/01/10 05:07:03;;;;;;;5.40;4.80;;;3.70;99.90;;;;;;5070740;28;20675;-68
2022/01/10 05:09:29;;;;;;;11.23;4.43;;;3.70;99.90;;;;;;5074448;28;20573;-68
2022/01/10 05:11:55;;;;;;;6.37;4.20;;;3.70;99.90;;;;;;5073863;28;20837;-69
2022/01/10 05:14:20;;;;;;;4.00;3.63;;;3.80;99.90;;;;;;5074151;28;20630;-68
2022/01/10 05:16:46;;;;;;;8.17;5.20;;;3.70;99.90;;;;;;5073979;28;20836;-68
2022/01/10 05:19:12;;;;;;;5.93;5.35;;;3.70;99.90;;;;;;5074128;28;20399;-68
2022/01/10 05:21:38;;;;;;;5.27;4.80;;;3.70;99.90;;;;;;5074111;28;20736;-68
2022/01/10 05:24:04;;;;;;;8.00;5.07;;;3.80;99.90;;;;;;5071664;28;20176;-69
2022/01/10 05:26:30;;;;;;;7.55;3.88;;;3.80;99.90;;;;;;5074042;28;20184;-67
2022/01/10 05:28:55;;;;;;;4.60;3.67;;;3.80;99.90;;;;;;5074057;28;20179;-68
2022/01/10 05:31:21;;;;;;;4.97;3.57;;;3.80;99.90;;;;;;5073659;28;20294;-68
2022/01/10 05:33:48;;;;;;;6.00;4.85;;;3.80;99.90;;;;;;5074265;28;20169;-68
2022/01/10 05:36:13;;;;;;;4.05;3.15;;;3.80;99.90;;;;;;5072464;28;20651;-68
2022/01/10 05:38:39;;;;;;;5.73;5.00;;;3.90;99.90;;;;;;5073809;28;20169;-68
2022/01/10 05:41:05;;;;;;;7.23;4.50;;;3.90;99.90;;;;;;5073605;28;20226;-68
2022/01/10 05:43:31;;;;;;;6.70;4.17;;;3.90;99.90;;;;;;5073541;28;20440;-68
2022/01/10 05:45:57;;;;;;;8.47;4.20;;;3.80;99.90;;;;;;5073573;28;20172;-68
2022/01/10 05:48:26;;;;;;;4.75;4.30;;;3.80;99.90;;;;;;5073011;28;20424;-69
2022/01/10 05:50:53;;;;;;;7.88;4.05;;;3.80;99.90;;;;;;5073357;28;20218;-69
2022/01/10 05:53:19;;;;;;;10.38;5.13;;;3.80;99.90;;;;;;5073031;28;20517;-68
2022/01/10 05:55:45;;;;;;;7.63;4.97;;;3.80;99.90;;;;;;5073140;28;20207;-68
2022/01/10 05:58:11;;;;;;;7.22;5.55;;;3.80;99.90;;;;;;5073485;28;20180;-68
2022/01/10 06:00:37;;;;;;;4.77;4.30;;;3.80;99.90;;;;;;5071813;28;20630;-69
2022/01/10 06:03:03;;;;;;;5.72;4.28;;;3.80;99.90;;;;;;5062970;28;20166;-68
2022/01/10 06:05:32;;;;;;;7.03;4.82;;;3.80;99.90;;;;;;5054775;28;20180;-69
2022/01/10 06:08:00;;;;;;;9.35;4.85;;;3.80;99.90;;;;;;5071268;28;20189;-69
2022/01/10 06:10:26;;;;;;;9.90;5.40;;;3.90;99.90;;;;;;5071195;28;20171;-68
2022/01/10 06:12:52;;;;;;;7.00;4.82;;;3.90;99.90;;;;;;5070840;28;20172;-68
2022/01/10 06:15:18;;;;;;;15.07;5.30;;;3.80;99.90;;;;;;5071365;28;20213;-69
2022/01/10 06:17:44;;;;;;;5.80;4.73;;;3.80;99.90;;;;;;5071533;28;20194;-69
2022/01/10 06:20:10;;;;;;;5.00;4.70;;;3.80;99.90;;;;;;5071542;28;20430;-67
2022/01/10 06:22:35;;;;;;;6.90;5.07;;;3.80;99.90;;;;;;5071419;28;20622;-69
2022/01/10 06:25:04;;;;;;;5.83;4.80;;;3.80;99.90;;;;;;5072788;28;20502;-69
2022/01/10 06:27:30;;;;;;;8.43;5.57;;;3.70;99.90;;;;;;5073241;28;20238;-70
2022/01/10 06:29:55;;;;;;;6.60;5.60;;;3.70;99.90;;;;;;5073328;28;20180;-68
2022/01/10 06:32:21;;;;;;;6.37;4.63;;;3.80;99.90;;;;;;5072720;28;20502;-64
2022/01/10 06:34:47;;;;;;;10.23;5.63;;;3.70;99.90;;;;;;5072940;28;20177;-63
2022/01/10 06:37:12;;;;;;;8.50;5.73;;;3.70;99.90;;;;;;5076722;28;20192;-70
2022/01/10 06:39:38;;;;;;;8.93;5.57;;;3.70;99.90;;;;;;5077368;28;20169;-70
2022/01/10 06:42:04;;;;;;;6.30;5.03;;;3.80;99.90;;;;;;5076674;28;20190;-70
2022/01/10 06:44:30;;;;;;;7.97;4.05;;;3.80;99.90;;;;;;5077151;28;20530;-68
2022/01/10 06:46:57;;;;;;;6.63;6.00;;;3.70;99.90;;;;;;5061562;28;20193;-69
2022/01/10 06:49:23;;;;;;;11.45;7.20;;;3.80;99.90;;;;;;5056953;28;20403;-70
2022/01/10 06:51:49;;;;;;;6.65;5.05;;;3.80;99.90;;;;;;5056731;28;20180;-71
2022/01/10 06:54:15;;;;;;;7.18;5.70;;;3.80;99.90;;;;;;5057299;28;20535;-69
2022/01/10 06:56:41;;;;;;;9.07;6.30;;;3.70;99.90;;;;;;5057000;28;20212;-70
2022/01/10 06:59:07;;;;;;;6.80;6.10;;;3.70;99.90;;;;;;5056843;28;20535;-70
2022/01/10 07:01:33;;;;;;;7.17;5.07;;;3.70;99.90;;;;;;5061279;28;20165;-70
2022/01/10 07:03:59;;;;;;;9.17;5.07;;;3.70;99.90;;;;;;5061153;28;20941;-68
2022/01/10 07:06:25;;;;;;;8.70;6.78;;;3.70;99.90;;;;;;5067703;28;20189;-68
2022/01/10 07:08:51;;;;;;;6.73;5.90;;;3.70;99.90;;;;;;5075407;28;20173;-71
2022/01/10 07:11:16;;;;;;;10.85;5.28;;;3.70;99.90;;;;;;5076117;28;20411;-69
2022/01/10 07:13:43;;;;;;;5.73;5.23;;;3.70;99.90;;;;;;5076578;28;20256;-71
2022/01/10 07:16:08;;;;;;;6.80;6.20;;;3.70;99.90;;;;;;5075194;28;20577;-70
2022/01/10 07:18:34;;;;;;;7.50;6.40;;;3.70;99.90;;;;;;5076472;28;20175;-69
2022/01/10 07:21:00;;;;;;;7.60;5.80;;;3.70;99.90;;;;;;5074522;28;20221;-70
2022/01/10 07:23:26;;;;;;;9.43;5.90;;;3.60;99.90;;;;;;5076129;28;20160;-70
2022/01/10 07:25:52;;;;;;;9.00;7.43;;;3.60;99.90;;;;;;5077784;28;20418;-69
2022/01/10 07:28:18;;;;;;;9.27;5.30;;;3.60;99.90;;;;;;5076095;28;20440;-70
2022/01/10 07:30:44;;;;;;;9.88;6.75;;;3.60;99.90;;;;;;5070514;28;20188;-70
2022/01/10 07:33:10;;;;;;;6.35;5.28;;;3.60;99.90;;;;;;5055589;28;20220;-69
2022/01/10 07:35:36;;;;;;;5.80;5.03;;;3.60;99.90;;;;;;5055952;28;20224;-68
2022/01/10 07:38:02;;;;;;;7.20;6.50;;;3.60;99.90;;;;;;5060293;28;20197;-72
2022/01/10 07:40:27;;;;;;;8.43;5.47;;;3.60;99.90;;;;;;5073141;28;20173;-70
2022/01/10 07:42:53;;;;;;;7.87;5.53;;;3.50;99.90;;;;;;5073921;28;20399;-70
2022/01/10 07:45:19;;;;;;;14.80;7.77;;;3.60;99.90;;;;;;5072207;28;20663;-70
2022/01/10 07:47:45;;;;;;;12.93;6.57;;;3.50;99.90;;;;;;5082365;28;20196;-67
2022/01/10 07:50:11;;;;;;;7.68;6.80;;;3.60;99.90;;;;;;5075197;28;20173;-70
2022/01/10 07:52:37;;;;;;;11.73;6.37;;;3.60;99.90;;;;;;5075257;28;20623;-69
2022/01/10 07:55:04;;;;;;;9.47;6.10;;;3.60;99.90;;;;;;5073299;28;20451;-68
2022/01/10 07:57:29;;;;;;;11.85;6.60;;;3.60;99.90;;;;;;5075553;28;20418;-71
2022/01/10 07:59:55;;;;;;;11.10;7.17;;;3.60;99.90;;;;;;5074197;28;20691;-69
2022/01/10 08:02:21;;;;;;;12.20;7.97;;;3.60;99.90;;;;;;5074522;28;20202;-70
2022/01/10 08:04:48;;;;;;;18.38;8.05;;;3.60;99.90;;;;;;5073442;28;20173;-69
2022/01/10 08:07:14;;;;;;;7.38;5.47;;;3.70;99.90;;;;;;5075501;28;20197;-68
2022/01/10 08:09:40;;;;;;;11.90;5.90;;;3.70;99.90;;;;;;5066368;28;20742;-70
2022/01/10 08:12:06;;;;;;;8.67;6.50;;;3.70;99.90;;;;;;5074217;28;20169;-68
2022/01/10 08:14:32;;;;;;;14.80;7.15;;;3.70;99.90;;;;;;5075121;28;20168;-70
2022/01/10 08:16:59;;;;;;;10.55;7.55;;;3.70;99.90;;;;;;5062891;28;20212;-69
2022/01/10 08:19:30;;;;;;;9.68;7.03;;;3.70;99.90;;;;;;5060221;28;20176;-67
2022/01/10 08:21:57;;;;;;;10.95;7.03;;;3.70;99.90;;;;;;5074862;28;20274;-70
2022/01/10 08:24:23;;;;;;;5.20;4.70;;;3.80;99.90;;;;;;5074538;28;20179;-70
2022/01/10 08:26:50;;;;;;;7.18;6.45;;;3.80;99.90;;;;;;5075265;28;20532;-69
2022/01/10 08:29:15;;;;;;;8.85;6.57;;;3.90;99.90;;;;;;5073736;28;20646;-71
2022/01/10 08:31:41;;;;;;;10.70;6.90;;;3.90;99.90;;;;;;5074002;28;20216;-70
2022/01/10 08:34:07;;;;;;;5.80;5.03;;;3.90;99.90;;;;;;5074859;28;20506;-69
2022/01/10 08:36:34;;;;;;;7.90;7.10;;;3.90;99.90;;;;;;5074868;28;20674;-69
2022/01/10 08:39:00;;;;;;;6.97;6.30;;;3.90;99.90;;;;;;5074408;28;20411;-67
2022/01/10 08:41:26;;;;;;;12.80;4.25;;;4.00;99.90;;;;;;5074618;28;20169;-70
2022/01/10 08:43:52;;;;;;;10.27;5.33;;;4.00;99.90;;;;;;5074927;28;20188;-67
2022/01/10 08:46:17;;;;;;;5.30;4.80;;;4.00;99.90;;;;;;5074148;28;20164;-70
2022/01/10 08:48:44;;;;;;;12.63;5.00;;;4.00;99.90;;;;;;5073410;28;20173;-70
2022/01/10 08:51:10;;;;;;;8.13;6.63;;;4.10;99.90;;;;;;5074528;28;20173;-70
2022/01/10 08:53:36;;;;;;;6.35;4.15;;;4.20;99.90;;;;;;5074862;28;20279;-69
2022/01/10 08:56:03;;;;;;;15.30;7.10;;;4.20;99.90;;;;;;5074642;28;20235;-69
2022/01/10 08:58:32;;;;;;;6.85;5.10;;;4.20;99.90;;;;;;5074785;28;20170;-70
2022/01/10 09:01:03;;;;;;;6.57;6.00;;;4.20;99.90;;;;;;5074782;28;20161;-69
2022/01/10 09:03:29;;;;;;;10.88;5.80;;;4.30;99.90;;;;;;5074283;28;20188;-69
2022/01/10 09:05:55;;;;;;;11.43;7.18;;;4.30;99.90;;;;;;5067300;28;20177;-71
2022/01/10 09:08:25;;;;;;;17.75;6.72;;;4.30;99.90;;;;;;5054400;28;20526;-68
2022/01/10 09:10:51;;;;;;;7.53;4.50;;;4.30;99.90;;;;;;5054402;28;20201;-69
2022/01/10 09:13:17;;;;;;;7.93;6.23;;;4.40;99.90;;;;;;5052538;28;20194;-69
2022/01/10 09:15:42;;;;;;;6.73;5.20;;;4.40;99.90;;;;;;5054185;28;20462;-69
2022/01/10 09:18:08;;;;;;;14.90;6.03;;;4.40;99.90;;;;;;5053071;28;20191;-67
2022/01/10 09:20:34;;;;;;;14.87;5.83;;;4.40;99.90;;;;;;5054847;28;20165;-70
2022/01/10 09:23:00;;;;;;;8.30;6.43;;;4.40;99.90;;;;;;5054665;28;20616;-68
2022/01/10 09:25:26;;;;;;;6.90;4.27;;;4.40;99.90;;;;;;5054436;28;20177;-68
2022/01/10 09:27:51;;;;;;;7.70;6.33;;;4.30;99.90;;;;;;5054881;28;20194;-68
2022/01/10 09:30:17;;;;;;;14.07;7.47;;;4.40;99.90;;;;;;5053515;28;20177;-69
2022/01/10 09:32:43;;;;;;;11.07;5.57;;;4.30;99.90;;;;;;5054846;28;20266;-69
2022/01/10 09:35:09;;;;;;;11.20;5.67;;;4.30;99.90;;;;;;5055046;28;20197;-68
2022/01/10 09:37:34;;;;;;;9.17;5.20;;;4.40;99.90;;;;;;5055086;28;20548;-70
2022/01/10 09:40:01;;;;;;;14.67;5.03;;;4.40;99.90;;;;;;5054787;28;20439;-70
2022/01/10 09:42:26;;;;;;;10.20;4.95;;;4.50;99.90;;;;;;5053824;28;20180;-69
2022/01/10 09:44:52;;;;;;;8.47;5.80;;;4.60;99.90;;;;;;5053837;28;20157;-68
2022/01/10 09:47:18;;;;;;;8.90;6.05;;;4.70;99.90;;;;;;5053701;28;20177;-68
2022/01/10 09:49:44;;;;;;;11.33;5.50;;;4.70;99.90;;;;;;5053901;28;20328;-69
2022/01/10 09:52:10;;;;;;;6.07;5.03;;;4.80;99.90;;;;;;5053277;28;20401;-68
2022/01/10 09:54:36;;;;;;;6.38;4.88;;;4.90;99.90;;;;;;5053618;28;20403;-70
2022/01/10 09:57:02;;;;;;;8.70;5.00;;;4.90;99.90;;;;;;5056975;28;20212;-69
2022/01/10 09:59:29;;;;;;;7.13;5.78;;;5.00;99.90;;;;;;5073556;28;20249;-69
2022/01/10 10:01:54;;;;;;;32.78;7.07;;;5.00;99.90;;;;;;5071672;28;20176;-68
2022/01/10 10:04:21;;;;;;;5.97;5.37;;;5.10;99.90;;;;;;5071371;28;20197;-69
2022/01/10 10:06:47;;;;;;;7.70;4.85;;;5.20;99.90;;;;;;5059308;28;20521;-69
2022/01/10 10:09:13;;;;;;;4.13;3.72;;;5.30;99.90;;;;;;5055828;28;20172;-68
2022/01/10 10:11:45;;;;;;;13.55;4.60;;;5.30;99.90;;;;;;5072290;28;20174;-69
2022/01/10 10:14:13;;;;;;;8.95;4.43;;;5.30;99.90;;;;;;5073410;28;20205;-69
2022/01/10 10:16:46;;;;;;;11.68;6.25;;;5.30;99.90;;;;;;5073263;28;20205;-70
2022/01/10 10:19:12;;;;;;;8.73;4.53;;;5.50;99.90;;;;;;5071864;28;20248;-69
2022/01/10 10:21:38;;;;;;;7.90;5.10;;;5.60;99.90;;;;;;5057466;28;20260;-70
2022/01/10 10:24:06;;;;;;;6.03;3.93;;;5.60;99.90;;;;;;5053087;28;20165;-69
2022/01/10 10:26:32;;;;;;;4.88;3.72;;;5.60;99.90;;;;;;5052871;28;20581;-69
2022/01/10 10:29:00;;;;;;;7.67;4.97;;;5.60;99.90;;;;;;5053016;28;20170;-67
2022/01/10 10:31:42;;;;;;;4.25;3.85;;;5.40;99.90;;;;;;5052701;28;20953;-69
2022/01/10 10:34:07;;;;;;;5.35;4.60;;;5.30;99.90;;;;;;5053105;28;20186;-69
2022/01/10 10:36:35;;;;;;;7.37;5.30;;;5.20;99.90;;;;;;5052612;28;20565;-68
2022/01/10 10:39:03;;;;;;;7.38;4.25;;;5.30;99.90;;;;;;5051449;28;20546;-68
2022/01/10 10:41:29;;;;;;;5.88;5.28;;;5.40;99.90;;;;;;5051318;28;20199;-71
2022/01/10 10:43:55;;;;;;;3.67;3.37;;;5.50;99.90;;;;;;5052811;28;20250;-69
2022/01/10 10:46:26;;;;;;;10.70;5.40;;;5.50;99.90;;;;;;5053036;28;20773;-70
2022/01/10 10:48:56;;;;;;;6.75;4.75;;;5.50;99.90;;;;;;5052876;28;20617;-67
2022/01/10 10:51:25;;;;;;;4.78;4.07;;;5.50;99.90;;;;;;5052254;28;20168;-68
2022/01/10 10:53:51;;;;;;;10.73;5.03;;;5.60;99.90;;;;;;5052930;28;20199;-71
2022/01/10 10:56:17;;;;;;;5.73;4.50;;;5.60;99.90;;;;;;5053226;28;20231;-70
2022/01/10 10:58:43;;;;;;;5.57;4.57;;;5.50;99.90;;;;;;5053481;28;20491;-69
2022/01/10 11:01:08;;;;;;;5.17;4.60;;;5.60;99.90;;;;;;5052202;28;20193;-69
2022/01/10 11:03:34;;;;;;;6.10;4.63;;;5.70;99.90;;;;;;5064575;28;20196;-70
2022/01/10 11:06:03;;;;;;;4.00;3.50;;;5.90;99.90;;;;;;5065090;28;20183;-69
2022/01/10 11:08:31;;;;;;;5.18;3.70;;;6.00;99.90;;;;;;5052973;28;20610;-70
2022/01/10 11:11:01;;;;;;;4.13;3.72;;;6.10;99.90;;;;;;5052607;28;20176;-70
2022/01/10 11:13:29;;;;;;;5.57;5.07;;;6.30;99.90;;;;;;5052472;28;20314;-69
2022/01/10 11:15:58;;;;;;;4.50;3.97;;;6.40;99.90;;;;;;5064363;28;20232;-70
2022/01/10 11:18:24;;;;;;;7.57;4.03;;;6.50;99.90;;;;;;5072468;28;20190;-68
2022/01/10 11:20:52;;;;;;;7.05;5.05;;;6.70;99.90;;;;;;5072893;28;20638;-70
2022/01/10 11:23:20;;;;;;;12.40;4.90;;;6.80;99.90;;;;;;5075541;28;20166;-69
2022/01/10 11:25:46;;;;;;;3.83;3.45;;;6.90;99.90;;;;;;5075871;28;20172;-70
2022/01/10 11:28:23;;;;;;;7.20;3.87;;;6.90;99.90;;;;;;5076086;28;20536;-70
2022/01/10 11:31:00;;;;;;;5.53;4.53;;;6.90;99.90;;;;;;5074730;28;20259;-71
2022/01/10 11:33:31;;;;;;;7.03;3.97;;;6.80;99.90;;;;;;5076065;28;20584;-70
2022/01/10 11:36:02;;;;;;;11.73;5.20;;;6.90;99.90;;;;;;5075915;28;20193;-70
2022/01/10 11:38:44;;;;;;;9.48;4.93;;;6.80;99.90;;;;;;5075857;28;20198;-72
2022/01/10 11:41:23;;;;;;;5.53;4.32;;;6.70;99.90;;;;;;5075994;28;20191;-70
2022/01/10 11:44:13;;;;;;;9.48;5.20;;;6.80;99.90;;;;;;5076249;28;20240;-71
2022/01/10 11:46:44;;;;;;;5.28;3.42;;;6.90;99.90;;;;;;5076178;28;20180;-71
2022/01/10 11:49:12;;;;;;;4.30;3.80;;;7.00;99.90;;;;;;5076013;28;20173;-71
2022/01/10 11:51:49;;;;;;;5.05;4.38;;;7.00;99.90;;;;;;5075297;28;20243;-71
2022/01/10 11:54:23;;;;;;;7.70;3.90;;;7.20;99.90;;;;;;5075804;28;20252;-70
2022/01/10 11:56:51;;;;;;;7.60;4.50;;;7.30;99.90;;;;;;5075688;28;20645;-72
2022/01/10 11:59:26;;;;;;;8.05;5.00;;;7.40;99.90;;;;;;5058869;28;20181;-73
2022/01/10 12:01:57;;;;;;;7.00;4.80;;;7.40;99.90;;;;;;5055213;28;20528;-70
2022/01/10 12:04:23;;;;;;;5.90;4.13;;;7.40;99.90;;;;;;5074375;28;20536;-70
2022/01/10 12:06:50;;;;;;;8.88;4.75;;;7.40;99.90;;;;;;5060678;28;20185;-70
2022/01/10 12:09:17;;;;;;;5.28;4.68;;;7.10;99.90;;;;;;5054307;28;20172;-70
2022/01/10 12:11:45;;;;;;;7.57;4.53;;;7.00;99.90;;;;;;5055047;28;20183;-70
2022/01/10 12:14:12;;;;;;;6.75;6.10;;;6.90;99.90;;;;;;5055473;28;20636;-70
2022/01/10 12:16:38;;;;;;;7.72;5.53;;;6.80;99.90;;;;;;5055099;28;20244;-69
2022/01/10 12:19:05;;;;;;;5.85;4.97;;;6.80;99.90;;;;;;5055170;28;20194;-70
2022/01/10 12:21:32;;;;;;;8.65;4.90;;;6.70;99.90;;;;;;5055125;28;20169;-68
2022/01/10 12:23:58;;;;;;;6.55;3.42;;;6.60;99.90;;;;;;5055269;28;20250;-71
2022/01/10 12:26:25;;;;;;;5.97;3.67;;;6.60;99.90;;;;;;5053991;28;20231;-71
2022/01/10 12:28:57;;;;;;;6.97;3.88;;;6.60;99.90;;;;;;5055110;28;20201;-69
2022/01/10 12:31:24;;;;;;;6.78;5.13;;;6.60;99.90;;;;;;5061327;28;20176;-69
2022/01/10 12:33:52;;;;;;;10.85;6.82;;;6.50;99.90;;;;;;5074962;28;20212;-71
2022/01/10 12:36:23;;;;;;;11.20;5.70;;;6.40;99.90;;;;;;5075118;28;20242;-72
2022/01/10 12:38:51;;;;;;;6.70;5.05;;;6.30;99.90;;;;;;5074890;28;20213;-72
2022/01/10 12:41:19;;;;;;;5.20;4.13;;;6.30;99.90;;;;;;5074288;28;20251;-71
2022/01/10 12:43:46;;;;;;;8.50;5.03;;;6.10;99.90;;;;;;5063374;28;20597;-70
2022/01/10 12:46:13;;;;;;;7.30;5.35;;;6.10;99.90;;;;;;5055048;28;20528;-72
2022/01/10 12:48:40;;;;;;;4.68;3.72;;;6.00;99.90;;;;;;5055013;28;20179;-72
2022/01/10 12:51:06;;;;;;;12.80;5.85;;;6.00;99.90;;;;;;5062863;28;20183;-73
2022/01/10 12:53:32;;;;;;;9.73;5.25;;;6.00;99.90;;;;;;5075459;28;20177;-71
2022/01/10 12:55:59;;;;;;;6.32;4.82;;;6.00;99.90;;;;;;5074580;28;20336;-70
2022/01/10 12:58:25;;;;;;;10.70;6.47;;;6.10;99.90;;;;;;5073642;28;20276;-72
2022/01/10 13:00:51;;;;;;;4.97;4.47;;;6.20;99.90;;;;;;5074459;28;20714;-71
2022/01/10 13:03:17;;;;;;;8.27;5.93;;;6.30;99.90;;;;;;5064369;28;20434;-72
2022/01/10 13:05:45;;;;;;;9.57;4.80;;;6.20;99.90;;;;;;5054534;28;20175;-71
2022/01/10 13:08:10;;;;;;;8.05;6.10;;;6.30;99.90;;;;;;5053239;28;20234;-70
2022/01/10 13:10:38;;;;;;;10.57;6.00;;;6.30;99.90;;;;;;5054896;28;20198;-70